createdAt,value
2019-05-30T00:00:30.044Z,1.77
2019-05-30T00:02:58.566Z,2.73
2019-05-30T00:05:26.419Z,2.00
2019-05-30T00:07:54.193Z,2.03
2019-05-30T00:10:22.815Z,2.20
2019-05-30T00:12:50.431Z,2.10
2019-05-30T00:15:18.177Z,1.70
2019-05-30T00:17:45.893Z,2.70
2019-05-30T00:20:13.948Z,1.60
2019-05-30T00:22:41.594Z,1.50
2019-05-30T00:25:09.338Z,1.70
2019-05-30T00:27:37.201Z,1.50
2019-05-30T00:30:22.861Z,1.60
2019-05-30T00:32:36.041Z,1.50
2019-05-30T00:35:04.241Z,1.90
2019-05-30T00:37:31.840Z,1.73
2019-05-30T00:39:59.903Z,2.17
2019-05-30T00:42:27.801Z,1.73
2019-05-30T00:44:55.829Z,1.20
2019-05-30T00:47:23.657Z,1.27
2019-05-30T00:49:51.455Z,1.27
2019-05-30T00:52:19.188Z,2.03
2019-05-30T00:54:46.790Z,0.90
2019-05-30T00:57:15.490Z,1.20
2019-05-30T00:59:43.221Z,0.87
2019-05-30T01:02:11.061Z,2.00
2019-05-30T01:04:38.838Z,2.30
2019-05-30T01:07:07.236Z,1.00
2019-05-30T01:09:35.162Z,1.90
2019-05-30T01:12:03.129Z,1.00
2019-05-30T01:14:30.905Z,1.03
2019-05-30T01:16:59.014Z,1.37
2019-05-30T01:19:26.924Z,1.00
2019-05-30T01:21:54.658Z,1.93
2019-05-30T01:24:22.781Z,1.00
2019-05-30T01:26:50.480Z,0.83
2019-05-30T01:29:18.182Z,1.80
2019-05-30T01:31:46.273Z,1.00
2019-05-30T01:34:14.009Z,1.33
2019-05-30T01:36:41.637Z,1.80
2019-05-30T01:39:09.334Z,1.10
2019-05-30T01:41:36.997Z,2.17
2019-05-30T01:44:04.583Z,1.97
2019-05-30T01:46:33.292Z,1.20
2019-05-30T01:49:02.236Z,1.10
2019-05-30T01:51:30.135Z,0.93
2019-05-30T01:53:58.367Z,1.30
2019-05-30T01:56:26.102Z,1.60
2019-05-30T01:58:53.693Z,1.23
2019-05-30T02:01:25.040Z,1.47
2019-05-30T02:03:51.262Z,1.50
2019-05-30T02:06:19.589Z,1.17
2019-05-30T02:08:47.581Z,1.90
2019-05-30T02:11:15.239Z,1.43
2019-05-30T02:13:42.816Z,1.27
2019-05-30T02:16:10.473Z,1.37
2019-05-30T02:18:38.036Z,1.30
2019-05-30T02:21:05.925Z,1.80
2019-05-30T02:23:33.665Z,1.23
2019-05-30T02:26:02.233Z,1.73
2019-05-30T02:28:30.688Z,2.70
2019-05-30T02:30:58.262Z,1.57
2019-05-30T02:33:26.831Z,1.60
2019-05-30T02:35:54.480Z,1.50
2019-05-30T02:38:22.005Z,1.73
2019-05-30T02:40:49.717Z,1.53
2019-05-30T02:43:17.330Z,4.47
2019-05-30T02:45:45.050Z,1.73
2019-05-30T02:48:12.679Z,1.90
2019-05-30T02:50:40.394Z,1.70
2019-05-30T02:53:10.125Z,1.77
2019-05-30T02:55:37.601Z,2.00
2019-05-30T02:58:06.186Z,1.87
2019-05-30T03:00:36.286Z,1.70
2019-05-30T03:03:06.698Z,1.87
2019-05-30T03:05:34.874Z,1.87
2019-05-30T03:08:04.898Z,2.00
2019-05-30T03:10:32.263Z,2.00
2019-05-30T03:13:01.746Z,3.00
2019-05-30T03:15:29.931Z,6.33
2019-05-30T03:17:57.637Z,4.90
2019-05-30T03:20:25.185Z,3.73
2019-05-30T03:22:52.932Z,2.17
2019-05-30T03:25:20.576Z,2.70
2019-05-30T03:27:48.197Z,2.20
2019-05-30T03:30:26.104Z,2.27
2019-05-30T03:33:05.340Z,2.53
2019-05-30T03:35:26.867Z,2.23
2019-05-30T03:37:44.927Z,2.90
2019-05-30T03:40:12.987Z,2.47
2019-05-30T03:42:40.634Z,2.30
2019-05-30T03:45:11.237Z,3.03
2019-05-30T03:47:39.744Z,2.20
2019-05-30T03:50:09.843Z,2.53
2019-05-30T03:52:38.109Z,3.53
2019-05-30T03:55:09.229Z,2.77
2019-05-30T03:57:42.542Z,2.90
2019-05-30T04:00:16.003Z,5.00
2019-05-30T04:03:01.824Z,2.50
2019-05-30T04:05:35.329Z,2.67
2019-05-30T04:08:04.790Z,4.10
2019-05-30T04:10:35.763Z,2.77
2019-05-30T04:13:30.209Z,2.97
2019-05-30T04:15:58.266Z,3.13
2019-05-30T04:18:26.153Z,4.83
2019-05-30T04:20:53.929Z,2.93
2019-05-30T04:23:21.889Z,3.80
2019-05-30T04:25:49.618Z,3.07
2019-05-30T04:28:18.705Z,2.80
2019-05-30T04:30:46.470Z,2.70
2019-05-30T04:33:26.304Z,2.90
2019-05-30T04:35:43.602Z,2.90
2019-05-30T04:38:12.710Z,3.37
2019-05-30T04:40:41.692Z,2.90
2019-05-30T04:43:09.283Z,3.90
2019-05-30T04:45:36.913Z,3.20
2019-05-30T04:48:04.800Z,5.37
2019-05-30T04:50:32.510Z,6.83
2019-05-30T04:53:00.061Z,3.17
2019-05-30T04:55:27.733Z,4.10
2019-05-30T04:57:55.391Z,3.60
2019-05-30T05:00:23.111Z,5.33
2019-05-30T05:02:50.725Z,4.23
2019-05-30T05:05:23.992Z,3.70
2019-05-30T05:07:48.011Z,3.80
2019-05-30T05:10:16.095Z,6.00
2019-05-30T05:12:43.865Z,4.37
2019-05-30T05:15:12.364Z,5.20
2019-05-30T05:17:40.155Z,4.67
2019-05-30T05:20:08.122Z,5.00
2019-05-30T05:22:35.790Z,4.53
2019-05-30T05:25:03.717Z,8.90
2019-05-30T05:27:31.406Z,4.80
2019-05-30T05:29:59.095Z,4.73
2019-05-30T05:32:27.303Z,5.57
2019-05-30T05:34:55.024Z,4.47
2019-05-30T05:37:23.298Z,5.97
2019-05-30T05:39:51.222Z,3.00
2019-05-30T05:42:20.191Z,4.77
2019-05-30T05:44:48.112Z,5.43
2019-05-30T05:47:16.419Z,7.70
2019-05-30T05:49:44.384Z,3.97
2019-05-30T05:52:12.262Z,4.47
2019-05-30T05:54:40.174Z,3.97
2019-05-30T05:57:07.801Z,4.10
2019-05-30T05:59:35.547Z,4.83
2019-05-30T06:02:03.329Z,3.20
2019-05-30T06:04:31.056Z,3.97
2019-05-30T06:06:58.809Z,3.80
2019-05-30T06:09:26.487Z,4.53
2019-05-30T06:11:54.231Z,4.57
2019-05-30T06:14:21.993Z,3.83
2019-05-30T06:16:49.809Z,4.43
2019-05-30T06:19:17.475Z,3.73
2019-05-30T06:21:54.156Z,3.90
2019-05-30T06:24:15.090Z,4.00
2019-05-30T06:26:42.779Z,4.57
2019-05-30T06:29:10.376Z,3.53
2019-05-30T06:31:37.985Z,3.77
2019-05-30T06:34:06.305Z,3.53
2019-05-30T06:36:33.986Z,3.63
2019-05-30T06:39:02.222Z,5.17
2019-05-30T06:41:31.196Z,3.60
2019-05-30T06:43:58.855Z,4.10
2019-05-30T06:46:26.467Z,3.90
2019-05-30T06:48:54.427Z,3.90
2019-05-30T06:51:22.920Z,3.40
2019-05-30T06:53:50.958Z,3.40
2019-05-30T06:56:18.987Z,2.90
2019-05-30T06:58:49.017Z,4.03
2019-05-30T07:01:16.231Z,4.37
2019-05-30T07:03:43.986Z,3.10
2019-05-30T07:06:12.523Z,3.40
2019-05-30T07:08:40.816Z,3.87
2019-05-30T07:11:08.927Z,3.13
2019-05-30T07:13:36.499Z,3.07
2019-05-30T07:16:04.202Z,3.60
2019-05-30T07:18:34.888Z,3.77
2019-05-30T07:21:01.428Z,4.23
2019-05-30T07:23:30.134Z,3.43
2019-05-30T07:25:58.124Z,4.60
2019-05-30T07:28:25.861Z,3.73
2019-05-30T07:30:53.661Z,3.30
2019-05-30T07:33:21.313Z,2.80
2019-05-30T07:35:48.978Z,2.80
2019-05-30T07:38:16.628Z,2.90
2019-05-30T07:40:44.383Z,2.90
2019-05-30T07:43:12.395Z,2.93
2019-05-30T07:45:40.417Z,3.87
2019-05-30T07:48:08.256Z,3.30
2019-05-30T07:50:36.137Z,3.03
2019-05-30T07:53:04.323Z,2.93
2019-05-30T07:55:33.133Z,3.10
2019-05-30T07:58:01.543Z,3.67
2019-05-30T08:00:29.646Z,3.33
2019-05-30T08:02:57.278Z,3.03
2019-05-30T08:05:25.175Z,3.20
2019-05-30T08:07:53.118Z,2.83
2019-05-30T08:10:20.878Z,2.93
2019-05-30T08:12:48.520Z,2.53
2019-05-30T08:15:17.049Z,3.30
2019-05-30T08:17:44.802Z,2.57
2019-05-30T08:20:14.079Z,3.23
2019-05-30T08:22:41.729Z,2.93
2019-05-30T08:25:09.984Z,3.00
2019-05-30T08:27:38.677Z,3.17
2019-05-30T08:30:07.135Z,1.97
2019-05-30T08:32:35.229Z,2.00
2019-05-30T08:35:03.278Z,5.17
2019-05-30T08:37:32.024Z,1.90
2019-05-30T08:40:00.591Z,2.47
2019-05-30T08:42:29.495Z,2.43
2019-05-30T08:44:57.381Z,2.67
2019-05-30T08:47:24.981Z,2.70
2019-05-30T08:49:52.643Z,4.17
2019-05-30T08:52:20.669Z,3.20
2019-05-30T08:54:48.549Z,3.17
2019-05-30T08:57:16.574Z,4.43
2019-05-30T08:59:44.921Z,3.63
2019-05-30T09:02:12.826Z,2.50
2019-05-30T09:04:41.885Z,2.00
2019-05-30T09:07:09.686Z,2.43
2019-05-30T09:09:38.166Z,2.13
2019-05-30T09:12:05.988Z,2.40
2019-05-30T09:14:33.826Z,3.07
2019-05-30T09:17:01.529Z,2.73
2019-05-30T09:19:29.324Z,1.60
2019-05-30T09:21:57.002Z,2.93
2019-05-30T09:24:24.852Z,3.83
2019-05-30T09:26:52.589Z,3.57
2019-05-30T09:29:20.243Z,1.80
2019-05-30T09:31:48.680Z,1.67
2019-05-30T09:34:16.612Z,1.40
2019-05-30T09:36:44.763Z,2.77
2019-05-30T09:39:12.636Z,2.17
2019-05-30T09:41:41.819Z,2.07
2019-05-30T09:44:10.050Z,1.70
2019-05-30T09:46:37.867Z,1.90
2019-05-30T09:49:05.657Z,3.17
2019-05-30T09:51:33.502Z,1.50
2019-05-30T09:54:01.209Z,1.70
2019-05-30T09:56:29.210Z,1.47
2019-05-30T09:58:56.984Z,1.67
2019-05-30T10:01:24.718Z,1.53
2019-05-30T10:03:52.497Z,6.43
2019-05-30T10:06:28.918Z,3.70
2019-05-30T10:08:51.194Z,2.73
2019-05-30T10:11:20.327Z,1.67
2019-05-30T10:13:50.779Z,3.57
2019-05-30T10:16:18.395Z,2.70
2019-05-30T10:18:47.375Z,3.63
2019-05-30T10:21:17.044Z,2.17
2019-05-30T10:23:45.856Z,3.50
2019-05-30T10:26:14.308Z,1.73
2019-05-30T10:28:41.924Z,1.60
2019-05-30T10:31:09.688Z,3.07
2019-05-30T10:33:37.294Z,1.57
2019-05-30T10:36:05.006Z,1.57
2019-05-30T10:38:32.565Z,2.40
2019-05-30T10:41:00.207Z,1.73
2019-05-30T10:43:27.778Z,4.63
2019-05-30T10:45:55.535Z,2.47
2019-05-30T10:48:23.292Z,2.47
2019-05-30T10:50:50.918Z,3.93
2019-05-30T10:53:18.853Z,1.80
2019-05-30T10:55:48.087Z,4.83
2019-05-30T10:58:15.813Z,1.47
2019-05-30T11:00:48.447Z,2.00
2019-05-30T11:03:17.233Z,2.53
2019-05-30T11:05:50.684Z,2.47
2019-05-30T11:08:21.370Z,1.60
2019-05-30T11:10:50.597Z,1.87
2019-05-30T11:13:19.409Z,2.30
2019-05-30T11:15:48.752Z,2.43
2019-05-30T11:18:17.193Z,3.57
2019-05-30T11:20:45.151Z,2.33
2019-05-30T11:23:13.499Z,2.77
2019-05-30T11:25:41.109Z,1.40
2019-05-30T11:28:09.384Z,1.50
2019-05-30T11:30:37.292Z,3.53
2019-05-30T11:33:05.364Z,3.50
2019-05-30T11:35:33.045Z,1.50
2019-05-30T11:38:00.877Z,1.70
2019-05-30T11:40:29.534Z,2.50
2019-05-30T11:42:59.822Z,1.67
2019-05-30T11:45:27.868Z,8.03
2019-05-30T11:47:55.792Z,3.20
2019-05-30T11:50:23.889Z,1.93
2019-05-30T11:52:51.811Z,2.70
2019-05-30T11:55:19.556Z,1.50
2019-05-30T11:57:47.500Z,1.90
2019-05-30T12:00:15.424Z,2.03
2019-05-30T12:02:43.451Z,1.90
2019-05-30T12:05:11.259Z,3.27
2019-05-30T12:07:39.355Z,1.43
2019-05-30T12:10:08.724Z,2.10
2019-05-30T12:12:36.716Z,2.10
2019-05-30T12:15:05.201Z,1.60
2019-05-30T12:17:32.863Z,2.53
2019-05-30T12:20:01.654Z,3.40
2019-05-30T12:22:29.924Z,1.87
2019-05-30T12:24:57.780Z,2.40
2019-05-30T12:27:26.032Z,3.73
2019-05-30T12:29:54.086Z,1.50
2019-05-30T12:32:21.957Z,3.87
2019-05-30T12:34:49.709Z,2.57
2019-05-30T12:37:17.441Z,1.60
2019-05-30T12:39:46.240Z,1.87
2019-05-30T12:42:13.939Z,2.47
2019-05-30T12:44:41.604Z,1.57
2019-05-30T12:47:09.389Z,1.97
2019-05-30T12:49:37.615Z,2.47
2019-05-30T12:52:06.008Z,2.80
2019-05-30T12:54:33.808Z,1.40
2019-05-30T12:57:02.569Z,1.40
2019-05-30T12:59:30.467Z,2.43
2019-05-30T13:01:58.944Z,1.70
2019-05-30T13:04:27.267Z,2.67
2019-05-30T13:06:56.432Z,1.50
2019-05-30T13:09:25.011Z,1.50
2019-05-30T13:11:54.192Z,1.63
2019-05-30T13:14:22.380Z,1.80
2019-05-30T13:16:50.361Z,1.23
2019-05-30T13:19:18.439Z,1.83
2019-05-30T13:21:46.660Z,5.30
2019-05-30T13:24:14.545Z,1.97
2019-05-30T13:26:42.536Z,2.80
2019-05-30T13:29:10.697Z,1.83
2019-05-30T13:31:38.572Z,2.47
2019-05-30T13:34:07.173Z,2.83
2019-05-30T13:36:35.142Z,1.33
2019-05-30T13:39:05.245Z,3.10
2019-05-30T13:41:33.196Z,2.23
2019-05-30T13:44:03.227Z,4.00
2019-05-30T13:46:31.381Z,5.03
2019-05-30T13:49:00.670Z,1.60
2019-05-30T13:51:28.731Z,1.23
2019-05-30T13:53:56.703Z,2.30
2019-05-30T13:56:24.794Z,1.47
2019-05-30T13:58:53.940Z,2.40
2019-05-30T14:01:22.057Z,1.40
2019-05-30T14:03:50.372Z,1.50
2019-05-30T14:06:17.880Z,1.50
2019-05-30T14:08:45.879Z,3.10
2019-05-30T14:11:13.922Z,1.43
2019-05-30T14:13:43.895Z,1.47
2019-05-30T14:16:12.218Z,1.87
2019-05-30T14:18:40.508Z,1.63
2019-05-30T14:21:09.353Z,1.73
2019-05-30T14:23:37.886Z,1.27
2019-05-30T14:26:07.300Z,1.50
2019-05-30T14:28:35.459Z,1.63
2019-05-30T14:31:03.895Z,3.53
2019-05-30T14:33:32.602Z,2.13
2019-05-30T14:36:04.013Z,1.67
2019-05-30T14:38:29.649Z,3.13
2019-05-30T14:40:57.269Z,2.33
2019-05-30T14:43:24.959Z,3.10
2019-05-30T14:45:52.630Z,1.50
2019-05-30T14:48:20.348Z,4.73
2019-05-30T14:50:47.956Z,1.90
2019-05-30T14:53:17.075Z,2.33
2019-05-30T14:55:45.227Z,1.97
2019-05-30T14:58:13.470Z,3.47
2019-05-30T15:00:41.795Z,2.77
2019-05-30T15:03:15.437Z,3.20
2019-05-30T15:05:41.404Z,2.43
2019-05-30T15:08:10.561Z,2.67
2019-05-30T15:10:38.459Z,1.97
2019-05-30T15:13:07.500Z,1.80
2019-05-30T15:15:35.282Z,2.47
2019-05-30T15:18:03.379Z,3.33
2019-05-30T15:20:31.263Z,4.40
2019-05-30T15:22:59.401Z,4.30
2019-05-30T15:25:27.031Z,2.53
2019-05-30T15:27:54.832Z,2.77
2019-05-30T15:30:22.428Z,3.70
2019-05-30T15:32:50.232Z,3.53
2019-05-30T15:35:19.166Z,3.83
2019-05-30T15:37:48.537Z,1.90
2019-05-30T15:40:17.261Z,3.17
2019-05-30T15:42:45.340Z,1.93
2019-05-30T15:45:14.094Z,2.87
2019-05-30T15:47:42.279Z,1.83
2019-05-30T15:50:11.823Z,3.70
2019-05-30T15:52:40.104Z,2.30
2019-05-30T15:55:09.119Z,2.73
2019-05-30T15:57:37.087Z,3.43
2019-05-30T16:00:05.881Z,2.20
2019-05-30T16:02:33.504Z,2.30
2019-05-30T16:05:01.225Z,2.70
2019-05-30T16:07:30.190Z,2.93
2019-05-30T16:09:58.438Z,2.10
2019-05-30T16:12:26.084Z,2.10
2019-05-30T16:14:53.765Z,2.40
2019-05-30T16:17:21.770Z,1.90
2019-05-30T16:19:49.669Z,2.43
2019-05-30T16:22:18.352Z,2.40
2019-05-30T16:24:46.264Z,2.60
2019-05-30T16:27:15.659Z,2.57
2019-05-30T16:29:44.872Z,3.90
2019-05-30T16:32:13.800Z,2.80
2019-05-30T16:34:41.448Z,3.20
2019-05-30T16:37:09.439Z,3.97
2019-05-30T16:39:37.476Z,2.87
2019-05-30T16:42:05.567Z,3.00
2019-05-30T16:44:33.415Z,3.13
2019-05-30T16:47:01.470Z,5.57
2019-05-30T16:49:29.463Z,2.97
2019-05-30T16:51:57.353Z,3.00
2019-05-30T16:54:25.389Z,3.17
2019-05-30T16:56:53.442Z,3.07
2019-05-30T16:59:21.328Z,3.20
2019-05-30T17:01:57.958Z,2.83
2019-05-30T17:04:20.932Z,2.73
2019-05-30T17:06:49.128Z,4.37
2019-05-30T17:09:17.195Z,3.10
2019-05-30T17:11:45.238Z,2.90
2019-05-30T17:14:13.073Z,2.73
2019-05-30T17:16:41.056Z,3.47
2019-05-30T17:19:08.953Z,4.00
2019-05-30T17:21:37.104Z,3.00
2019-05-30T17:24:05.154Z,5.90
2019-05-30T17:26:33.145Z,7.47
2019-05-30T17:29:01.115Z,4.07
2019-05-30T17:31:29.281Z,4.30
2019-05-30T17:33:57.162Z,3.60
2019-05-30T17:36:26.235Z,3.93
2019-05-30T17:38:54.299Z,3.80
2019-05-30T17:41:22.762Z,3.90
2019-05-30T17:43:50.622Z,7.30
2019-05-30T17:46:19.230Z,6.33
2019-05-30T17:48:47.120Z,4.10
2019-05-30T17:51:15.246Z,3.83
2019-05-30T17:53:43.351Z,4.83
2019-05-30T17:56:11.368Z,6.03
2019-05-30T17:58:39.656Z,3.20
2019-05-30T18:01:07.429Z,3.73
2019-05-30T18:03:35.594Z,3.27
2019-05-30T18:06:03.638Z,2.47
2019-05-30T18:08:31.641Z,3.10
2019-05-30T18:10:59.564Z,3.33
2019-05-30T18:13:27.217Z,7.40
2019-05-30T18:15:55.091Z,4.20
2019-05-30T18:18:23.198Z,3.73
2019-05-30T18:20:51.224Z,4.03
2019-05-30T18:23:19.490Z,4.13
2019-05-30T18:25:47.566Z,4.03
2019-05-30T18:28:15.721Z,3.70
2019-05-30T18:30:43.949Z,6.00
2019-05-30T18:33:11.751Z,5.20
2019-05-30T18:35:40.497Z,4.83
2019-05-30T18:38:08.089Z,6.87
2019-05-30T18:40:37.067Z,4.60
2019-05-30T18:43:05.111Z,6.03
2019-05-30T18:45:40.065Z,4.27
2019-05-30T18:48:08.939Z,4.13
2019-05-30T18:50:36.763Z,6.33
2019-05-30T18:53:04.881Z,6.93
2019-05-30T18:55:32.694Z,5.37
2019-05-30T18:58:00.531Z,4.83
2019-05-30T19:00:29.167Z,4.27
2019-05-30T19:02:57.192Z,4.87
2019-05-30T19:05:25.002Z,4.83
2019-05-30T19:07:52.672Z,6.03
2019-05-30T19:10:20.468Z,6.07
2019-05-30T19:12:48.099Z,6.60
2019-05-30T19:15:16.156Z,8.47
2019-05-30T19:17:44.277Z,6.23
2019-05-30T19:20:12.369Z,9.17
2019-05-30T19:22:41.554Z,6.33
2019-05-30T19:25:09.711Z,5.60
2019-05-30T19:27:38.613Z,6.33
2019-05-30T19:30:07.707Z,5.60
2019-05-30T19:32:35.419Z,5.37
2019-05-30T19:35:03.727Z,5.87
2019-05-30T19:37:31.393Z,5.47
2019-05-30T19:39:59.006Z,5.50
2019-05-30T19:42:27.270Z,6.53
2019-05-30T19:44:55.005Z,5.70
2019-05-30T19:47:22.571Z,5.57
2019-05-30T19:49:50.252Z,6.30
2019-05-30T19:52:17.884Z,7.63
2019-05-30T19:54:45.777Z,6.87
2019-05-30T19:57:13.416Z,6.40
2019-05-30T19:59:41.080Z,6.17
2019-05-30T20:02:08.914Z,6.37
2019-05-30T20:04:36.581Z,6.33
2019-05-30T20:07:04.192Z,6.47
2019-05-30T20:09:32.477Z,6.83
2019-05-30T20:12:04.834Z,6.53
2019-05-30T20:14:30.946Z,6.30
2019-05-30T20:17:00.801Z,6.57
2019-05-30T20:19:28.514Z,6.60
2019-05-30T20:21:56.155Z,6.00
2019-05-30T20:24:23.936Z,6.33
2019-05-30T20:26:52.174Z,5.03
2019-05-30T20:29:20.367Z,6.00
2019-05-30T20:31:48.423Z,6.13
2019-05-30T20:34:18.007Z,6.73
2019-05-30T20:36:46.934Z,6.20
2019-05-30T20:39:15.090Z,6.60
2019-05-30T20:41:43.350Z,7.07
2019-05-30T20:44:12.904Z,6.00
2019-05-30T20:46:41.258Z,5.63
2019-05-30T20:49:09.309Z,6.03
2019-05-30T20:51:38.670Z,6.07
2019-05-30T20:54:07.190Z,7.43
2019-05-30T20:56:35.427Z,6.20
2019-05-30T20:59:03.436Z,6.23
2019-05-30T21:01:31.378Z,6.93
2019-05-30T21:03:59.386Z,5.97
2019-05-30T21:06:28.131Z,6.00
2019-05-30T21:08:56.860Z,6.33
2019-05-30T21:11:25.204Z,6.43
2019-05-30T21:13:53.514Z,6.33
2019-05-30T21:16:21.545Z,7.00
2019-05-30T21:18:50.970Z,6.87
2019-05-30T21:21:19.001Z,7.00
2019-05-30T21:23:47.007Z,7.50
2019-05-30T21:26:15.187Z,7.07
2019-05-30T21:28:43.352Z,7.73
2019-05-30T21:31:11.519Z,7.33
2019-05-30T21:33:40.571Z,7.63
2019-05-30T21:36:09.524Z,7.27
2019-05-30T21:38:37.857Z,7.37
2019-05-30T21:41:06.091Z,8.00
2019-05-30T21:43:34.072Z,7.60
2019-05-30T21:46:02.175Z,7.60
2019-05-30T21:48:30.434Z,7.27
2019-05-30T21:50:58.463Z,8.40
2019-05-30T21:53:26.506Z,8.40
2019-05-30T21:55:54.351Z,8.03
2019-05-30T21:58:22.452Z,8.57
2019-05-30T22:01:37.541Z,9.00
2019-05-30T22:04:07.560Z,7.97
2019-05-30T22:06:35.997Z,8.83
2019-05-30T22:09:07.109Z,8.90
2019-05-30T22:11:35.242Z,9.50
2019-05-30T22:14:03.232Z,9.60
2019-05-30T22:16:31.347Z,8.90
2019-05-30T22:18:59.456Z,9.27
2019-05-30T22:21:27.502Z,8.63
2019-05-30T22:23:55.582Z,8.77
2019-05-30T22:26:23.687Z,9.33
2019-05-30T22:28:52.925Z,8.83
2019-05-30T22:31:21.283Z,10.13
2019-05-30T22:33:51.259Z,9.70
2019-05-30T22:36:19.553Z,8.37
2019-05-30T22:38:47.512Z,9.63
2019-05-30T22:41:15.484Z,9.27
2019-05-30T22:43:43.870Z,8.73
2019-05-30T22:46:12.165Z,8.87
2019-05-30T22:48:40.111Z,8.20
2019-05-30T22:51:07.999Z,10.00
2019-05-30T22:53:36.206Z,10.57
2019-05-30T22:56:04.474Z,10.47
2019-05-30T22:58:32.583Z,9.90
2019-05-30T23:01:00.791Z,9.67
2019-05-30T23:03:28.936Z,10.83
2019-05-30T23:05:57.570Z,10.53
2019-05-30T23:08:25.834Z,11.00
2019-05-30T23:10:53.975Z,10.67
2019-05-30T23:13:22.291Z,10.73
2019-05-30T23:15:50.438Z,11.27
2019-05-30T23:18:18.327Z,11.80
2019-05-30T23:20:46.679Z,10.87
2019-05-30T23:23:14.853Z,9.67
2019-05-30T23:25:42.837Z,10.90
2019-05-30T23:28:10.819Z,10.73
2019-05-30T23:30:38.961Z,11.20
2019-05-30T23:33:07.035Z,11.30
2019-05-30T23:35:35.042Z,10.90
2019-05-30T23:38:02.930Z,9.70
2019-05-30T23:40:30.993Z,10.43
2019-05-30T23:42:59.319Z,10.07
2019-05-30T23:45:27.530Z,10.37
2019-05-30T23:47:55.630Z,11.87
2019-05-30T23:50:23.578Z,10.10
2019-05-30T23:52:52.505Z,9.23
2019-05-30T23:55:20.599Z,10.90
2019-05-30T23:57:48.682Z,10.63
